Flight Number: EUR1057 Duration: 4:30
Departure: Gatwick Airport (EGKK) at 05:30 Distance: 1891 Nm
Arrival: Cairo Int'll Airport (HECA) at 10:00 Equipment: B777

Weather Information
London / Gatwick Airport, United Kingdom (EGKK) 51-09N 000-11W 0M Feb 21, 2018 - 11:20 AM EST / 2018.02.21 1620 UTC
Wind: from the NNE (030 degrees) at 9 MPH (8 KT):0
Visibility: greater than 7 mile(s):0
Sky conditions: partly cloudy Temperature: 42 F (6 C) Dew Point: 32 F (0 C) Relative Humidity: 65% Pressure (altimeter): 30.27 in. Hg (1025 hPa)
ob: EGKK 211620Z AUTO 03008KT 9999 FEW031/// SCT043/// 06/00 Q1025 cycle: 16
Sunrise: 07:04 Sunset: 17:23 (UTC)

Cairo Airport, Egypt (HECA) 30-08N 031-24E 74M Feb 21, 2018 - 11:30 AM EST / 2018.02.21 1630 UTC
Wind: from the WSW (240 degrees) at 16 MPH (14 KT):0
Visibility: 1 mile(s):0
Sky conditions: mostly cloudy Weather: sand Temperature: 73 F (23 C) Dew Point: 33 F (1 C) Relative Humidity: 23% Pressure (altimeter): 29.80 in. Hg (1009 hPa)
ob: HECA 211630Z 24014KT 3000 SA SCT025 BKN070 23/01 Q1009 NOSIG cycle: 16
Sunrise: 04:30 Sunset: 15:44 (UTC)

TAF:2018/02/21 12:59 TAF HECA 211100Z 2112/2218 20008KT 9999 SCT025 BKN070 PROB40 TEMPO 2115/2206 18010G20KT 4000 RASA

Previous Pireps for this route
Date Aircraft Flight time Fuel used Landing rate On time
2012-08-29MD-8106.1033000-148Charter
2013-05-16B77704.3381696-125Yes
2013-11-16B7776.121044750No
2014-01-01B757-20004.2429914-215Yes
2014-02-03B757-20004.3631095-322Yes
2014-03-14B7774.441032410No
2014-04-26B757-20005.0834326-140Yes
2014-08-13B757-20004.2429767-130Yes
2014-10-31B7775.15841240Yes
2015-01-22B757-20004.3328958-101Yes
2015-02-20B757-2005.2700No
2015-03-02B757-2005.0643549-800Yes
2015-03-04B757-2004.2642828-688Yes
2015-04-23B73704.4338198-311Charter
2015-06-16B757-2004.2740834-197Yes
2015-08-18B757-20004.3329113-241Yes
2017-06-02B7475.301660000Charter
2017-06-08B74704.23103128-600Charter
(pireps marked green are flown by you)

Route map